• Join FlightAware (Why Join?)
  • Login
  • US Flag 
05:49AM EST


 

Airport Tracker/Info


-or-


 

Live Flight TrackerFlight Track Log ✈ SWA494 ✈ 18-Apr-2013 ✈ KHOU - KEWR

Flight Track Log - Related Links

Times and Time Zones

All times are in EDT time to prevent confusion due to time zone crossing. See the SWA494 flight status page for this flight to view local times or setup timezone preferences in your user account.

Time Position Orientation Groundspeed Altitude Reporting Facility
EDT Latitude Longitude Course Direction KTS MPH feet Rate Location/Type
08:24PM 29.6544 -95.2892 80° East 153 176 1,000  Level Houston Center
08:25PM 29.6608 -95.2475 80° East 238 274 3,500 2,280 Climbing Houston Center
08:25PM 29.6222 -95.2311 160° South 269 310 4,700 2,700 Climbing Houston Center
08:26PM 29.6064 -95.2036 124° Southeast 300 345 6,000 2,220 Climbing Houston Center
08:26PM 29.6056 -95.1564 91° East 291 335 7,000 1,500 Climbing Houston Center
08:27PM 29.6214 -95.0572 80° East 304 350 8,600 2,100 Climbing Houston Center
08:29PM 29.6328 -94.9342 84° East 329 379 11,400 2,820 Climbing Houston Center
08:30PM 29.6517 -94.8156 80° East 375 432 14,500 2,700 Climbing Houston Center
08:31PM 29.6700 -94.6906 80° East 392 451 17,100 2,460 Climbing Houston Center
08:32PM 29.6894 -94.5586 80° East 416 479 19,600 2,280 Climbing Houston Center
08:33PM 29.7083 -94.4200 81° East 436 502 21,900 2,280 Climbing Houston Center
08:34PM 29.7108 -94.2442 89° East 461 531 24,400 1,860 Climbing Houston Center
08:35PM 29.6922 -94.0961 98° East 469 540 25,800 1,320 Climbing Houston Center
08:36PM 29.6850 -93.9367 93° East 501 577 27,200 1,560 Climbing Houston Center
08:37PM 29.6839 -93.7717 90° East 516 594 29,100 1,620 Climbing Houston Center
08:38PM 29.7039 -93.6050 82° East 533 613 30,600 1,500 Climbing Houston Center
08:39PM 29.7389 -93.4383 76° East 537 618 32,200 1,740 Climbing Houston Center
08:40PM 29.7822 -93.2394 76° East 537 618 34,300 1,560 Climbing Houston Center
08:41PM 29.8131 -93.0950 76° East 532 612 35,500 1,260 Climbing Houston Center
08:42PM 29.8539 -92.8986 76° East 530 610 37,000 840 Climbing Houston Center
08:43PM 29.8894 -92.7333 76° East 531 611 37,300 720 Climbing Houston Center
08:44PM 29.9250 -92.5686 76° East 533 613 38,500 780 Climbing Houston Center
08:45PM 29.9592 -92.4061 76° East 529 609 39,000 240 Climbing Houston Center
08:46PM 29.9928 -92.2408 77° East 532 612 39,000  Level Houston Center
08:47PM 30.0344 -92.0428 76° East 531 611 39,000  Level Houston Center
08:48PM 30.0667 -91.8797 77° East 526 605 39,000  Level Houston Center
08:49PM 30.1000 -91.7161 77° East 526 605 39,000  Level Houston Center
08:50PM 30.1356 -91.5367 77° East 521 600 39,000  Level Houston Center
08:51PM 30.1672 -91.3761 77° East 518 596 39,000  Level Houston Center
08:52PM 30.1994 -91.2136 75° East 518 596 39,000  Level Houston Center
08:53PM 30.2054 -91.2075 75° East  Level FlightAware Approximate
08:53PM 30.2306 -91.0508 77° East 519 597 39,000  Level Houston Center
08:54PM 30.2636 -90.8894 77° East 518 596 39,000  Level Houston Center
08:55PM 30.2958 -90.7264 77° East 520 598 39,000  Level Houston Center
08:56PM 30.3325 -90.5297 78° East 521 600 39,000  Level Houston Center
08:58PM 30.3636 -90.3656 78° East 523 602 39,000  Level Houston Center
08:59PM 30.3953 -90.2014 77° East 522 601 39,000  Level Houston Center
09:00PM 30.4253 -90.0364 78° East 522 601 39,000  Level Houston Center
09:01PM 30.4564 -89.8700 78° East 520 598 39,000  Level Houston Center
09:02PM 30.4872 -89.6981 78° East 526 605 39,000  Level Houston Center
09:03PM 30.5144 -89.5319 79° East 521 600 39,000  Level Houston Center
09:04PM 30.5428 -89.3692 79° East 515 593 39,000  Level Houston Center
09:05PM 30.5700 -89.2056 79° East 517 595 39,000  Level Houston Center
09:06PM 30.6014 -89.0106 79° East 512 589 39,000  Level Houston Center
09:07PM 30.6300 -88.8442 79° East 509 586 39,000  Level Houston Center
09:08PM 30.6558 -88.6842 79° East 507 583 39,000  Level Houston Center
09:09PM 30.6833 -88.5244 79° East 508 585 39,000  Level Houston Center
09:10PM 30.7089 -88.3686 79° East 504 580 39,000  Level Houston Center
09:11PM 30.7339 -88.2086 80° East 503 579 39,000  Level Houston Center
09:12PM 30.7658 -88.0197 79° East 501 577 39,000  Level Houston Center
09:13PM 30.7925 -87.8625 79° East 498 573 39,000  Level Houston Center
09:13PM 30.7969 -87.8331 80° East 501 577 39,000  Level Jacksonville Center
09:14PM 30.8217 -87.6769 80° East 501 577 39,000  Level Jacksonville Center
09:15PM 30.8464 -87.5186 80° East 501 577 39,000  Level Jacksonville Center
09:16PM 30.8728 -87.3628 79° East 501 577 39,000  Level Jacksonville Center
09:17PM 30.8969 -87.2042 80° East 501 577 39,000  Level Jacksonville Center
09:18PM 30.9231 -87.0478 79° East 501 577 39,000  Level Jacksonville Center
09:19PM 30.9469 -86.8892 80° East 501 577 39,000  Level Jacksonville Center
09:20PM 30.9706 -86.7303 80° East 501 577 39,000  Level Jacksonville Center
09:21PM 30.9944 -86.5617 81° East 496 571 39,000  Level Jacksonville Center
09:22PM 31.0156 -86.4097 81° East 490 564 39,000  Level Jacksonville Center
09:23PM 31.0406 -86.2578 79° East 481 554 39,000  Level Jacksonville Center
09:24PM 31.0586 -86.1203 81° East 481 554 39,000  Level Jacksonville Center
09:25PM 31.0792 -85.9633 81° East 481 554 39,000  Level Jacksonville Center
09:26PM 31.1039 -85.8064 80° East 481 554 39,000  Level Jacksonville Center
09:27PM 31.1283 -85.6469 80° East 486 559 39,000  Level Jacksonville Center
09:28PM 31.1503 -85.4875 81° East 486 559 39,000  Level Jacksonville Center
09:29PM 31.1722 -85.3328 81° East 486 559 39,000  Level Jacksonville Center
09:30PM 31.1939 -85.1803 81° East 486 559 39,000  Level Jacksonville Center
09:31PM 31.2156 -85.0108 81° East 479 551 39,000  Level Jacksonville Center
09:32PM 31.2761 -84.8808 61° Northeast 462 532 39,000  Level Jacksonville Center
09:34PM 31.4067 -84.6933 51° Northeast 436 502 39,000  Level Atlanta Center
09:35PM 31.4886 -84.5794 50° Northeast 442 509 39,000  Level Atlanta Center
09:36PM 31.5683 -84.4678 50° Northeast 448 516 39,000  Level Atlanta Center
09:37PM 31.6503 -84.3511 50° Northeast 453 521 39,000  Level Atlanta Center
09:38PM 31.7319 -84.2367 50° Northeast 453 521 39,000  Level Atlanta Center
09:39PM 31.8114 -84.1194 51° Northeast 453 521 39,000  Level Atlanta Center
09:40PM 31.8947 -84.0047 49° Northeast 453 521 39,000  Level Atlanta Center
09:41PM 31.9761 -83.8869 51° Northeast 453 521 39,000  Level Atlanta Center
09:42PM 32.0572 -83.7669 51° Northeast 453 521 39,000  Level Atlanta Center
09:43PM 32.1425 -83.6389 52° Northeast 453 521 39,000  Level Atlanta Center
09:44PM 32.2236 -83.5233 50° Northeast 453 521 39,000  Level Atlanta Center
09:45PM 32.3044 -83.4047 51° Northeast 453 521 39,000  Level Atlanta Center
09:46PM 32.3831 -83.2861 52° Northeast 453 521 39,000  Level Atlanta Center
09:47PM 32.4636 -83.1697 51° Northeast 453 521 39,000  Level Atlanta Center
09:48PM 32.5442 -83.0508 51° Northeast 458 527 39,000  Level Atlanta Center
09:49PM 32.6081 -82.9539 52° Northeast 458 527 39,000  Level Atlanta Center
09:50PM 32.6925 -82.8269 52° Northeast 453 521 39,000  Level Atlanta Center
09:52PM 32.8800 -82.5486 51° Northeast 466 536 39,000  Level Jacksonville Center
09:53PM 32.9589 -82.4297 52° Northeast 460 529 39,000  Level Jacksonville Center
09:54PM 33.0419 -82.3103 50° Northeast 460 529 39,000  Level Jacksonville Center
09:55PM 33.1311 -82.2031 45° Northeast 455 524 39,000  Level Jacksonville Center
09:56PM 33.2161 -82.0931 47° Northeast 455 524 39,000  Level Jacksonville Center
09:57PM 33.2969 -81.9931 46° Northeast 450 518 39,000  Level Jacksonville Center
09:58PM 33.3878 -81.8825 45° Northeast 455 524 39,000  Level Jacksonville Center
09:59PM 33.4747 -81.7744 46° Northeast 455 524 39,000  Level Jacksonville Center
10:00PM 33.5653 -81.6636 46° Northeast 455 524 39,000  Level Jacksonville Center
10:01PM 33.6539 -81.5553 45° Northeast 455 524 39,000  Level Jacksonville Center
10:02PM 33.7406 -81.4439 47° Northeast 455 524 39,000  Level Jacksonville Center
10:03PM 33.8289 -81.3350 46° Northeast 450 518 39,000  Level Jacksonville Center
10:04PM 33.9131 -81.2233 48° Northeast 450 518 39,000  Level Jacksonville Center
10:05PM 34.0033 -81.1114 46° Northeast 450 518 39,000  Level Jacksonville Center
10:06PM 34.0894 -81.0069 45° Northeast 445 512 39,000  Level Jacksonville Center
10:07PM 34.1753 -80.8922 48° Northeast 445 512 39,000  Level Jacksonville Center
10:08PM 34.2611 -80.7847 46° Northeast 445 512 39,000  Level Jacksonville Center
10:09PM 34.3469 -80.6719 47° Northeast 445 512 39,000  Level Jacksonville Center
10:10PM 34.4364 -80.5564 47° Northeast 455 524 39,000  Level Jacksonville Center
10:12PM 34.6033 -80.3356 47° Northeast 450 518 39,000  Level Washington Center
10:13PM 34.6869 -80.2267 47° Northeast 447 514 39,000  Level Washington Center
10:14PM 34.7750 -80.1103 47° Northeast 452 520 39,000  Level Washington Center
10:15PM 34.8536 -80.0136 45° Northeast 452 520 39,000  Level Washington Center
10:16PM 34.9392 -79.8992 48° Northeast 452 520 39,000  Level Washington Center
10:17PM 35.0247 -79.7844 48° Northeast 452 520 39,000  Level Washington Center
10:18PM 35.1122 -79.6697 47° Northeast 452 520 39,000  Level Washington Center
10:19PM 35.2050 -79.5728 40° Northeast 452 520 39,000  Level Washington Center
10:20PM 35.3119 -79.4939 31° Northeast 445 512 39,000  Level Washington Center
10:21PM 35.4189 -79.4150 31° Northeast 445 512 39,000  Level Washington Center
10:22PM 35.5383 -79.3314 30° Northeast 445 512 39,000  Level Washington Center
10:23PM 35.6322 -79.2644 30° Northeast 440 506 39,000  Level Washington Center
10:24PM 35.7392 -79.1847 31° Northeast 440 506 39,000  Level Washington Center
10:25PM 35.8478 -79.1078 30° Northeast 440 506 39,000  Level Washington Center
10:26PM 35.9608 -79.0231 31° Northeast 434 499 39,000  Level Washington Center
10:27PM 36.0694 -78.9428 31° Northeast 434 499 39,000  Level Washington Center
10:28PM 36.1697 -78.8647 32° Northeast 434 499 39,000  Level Washington Center
10:29PM 36.2761 -78.7869 31° Northeast 434 499 39,000  Level Washington Center
10:30PM 36.3806 -78.7111 30° Northeast 434 499 39,000  Level Washington Center
10:31PM 36.4847 -78.6300 32° Northeast 434 499 39,000  Level Washington Center
10:32PM 36.5889 -78.5514 31° Northeast 434 499 39,000  Level Washington Center
10:33PM 36.6719 -78.4897 31° Northeast 434 499 39,000  Level Washington Center
10:34PM 36.7908 -78.3956 32° Northeast 429 494 39,000  Level Washington Center
10:35PM 36.8950 -78.3164 31° Northeast 429 494 39,000  Level Washington Center
10:36PM 36.9906 -78.2417 32° Northeast 438 504 39,000  Level Washington Center
10:37PM 37.0922 -78.1644 31° Northeast 438 504 39,000  Level Washington Center
10:38PM 37.2047 -78.0769 32° Northeast 432 497 39,000  Level Washington Center
10:39PM 37.3106 -77.9994 30° Northeast 437 503 39,000  Level Washington Center
10:40PM 37.4144 -77.9164 32° Northeast 437 503 39,000  Level Washington Center
10:41PM 37.5203 -77.8358 31° Northeast 437 503 39,000  Level Washington Center
10:42PM 37.6242 -77.7444 35° Northeast 437 503 39,000  Level Washington Center
10:43PM 37.7258 -77.6528 35° Northeast 447 514 39,000  Level Washington Center
10:44PM 37.8297 -77.5583 36° Northeast 453 521 39,000  Level Washington Center
10:45PM 37.9314 -77.4636 36° Northeast 453 521 39,000  Level Washington Center
10:46PM 38.0328 -77.3686 36° Northeast 453 521 39,000  Level Washington Center
10:47PM 38.1217 -77.2914 34° Northeast 446 513 39,000  Level Washington Center
10:48PM 38.2250 -77.1933 37° Northeast 451 519 39,000  Level Washington Center
10:49PM 38.3244 -77.1003 36° Northeast 461 531 39,000  Level Washington Center
10:50PM 38.4275 -77.0069 35° Northeast 454 522 39,000  Level Washington Center
10:51PM 38.5394 -76.9003 37° Northeast 454 522 39,000  Level Washington Center
10:52PM 38.6403 -76.8036 37° Northeast 454 522 39,000  Level Washington Center
10:53PM 38.7394 -76.7067 37° Northeast 454 522 39,000  Level Washington Center
10:54PM 38.8342 -76.5936 43° Northeast 454 522 39,000 -1,080 Level Washington Center
10:55PM 38.9289 -76.4856 42° Northeast 454 522 36,900 -2,520 Descending Washington Center
10:56PM 39.0256 -76.3772 41° Northeast 454 522 34,000 -3,180 Descending Washington Center
10:57PM 39.1219 -76.2606 43° Northeast 459 528 30,600 -2,760 Descending Washington Center
10:58PM 39.2164 -76.1542 41° Northeast 465 535 28,500 -1,800 Descending Washington Center
10:59PM 39.3169 -76.0394 41° Northeast 477 549 27,000 -780 Descending Washington Center
11:00PM 39.4236 -75.9114 43° Northeast 477 549 27,000  Level Washington Center
11:01PM 39.5239 -75.7933 42° Northeast 477 549 27,000 -1,200 Level Washington Center
11:02PM 39.6239 -75.6750 42° Northeast 477 549 24,600 -2,580 Descending Washington Center
11:03PM 39.7197 -75.5619 42° Northeast 471 542 21,900 -2,640 Descending Washington Center
11:04PM 39.8136 -75.4483 43° Northeast 471 542 19,400 -2,460 Descending Washington Center
11:05PM 39.8986 -75.3400 44° Northeast 448 516 17,000 -2,580 Descending Washington Center
11:06PM 39.9858 -75.2394 41° Northeast 427 491 14,300 -2,640 Descending Washington Center
11:07PM 40.0689 -75.1361 44° Northeast 415 478 11,800 -1,920 Descending Washington Center
11:08PM 40.1456 -75.0406 44° Northeast 392 451 10,600 -1,140 Descending Washington Center
11:10PM 40.2667 -74.9000 42° Northeast 328 377 8,700 -1,020 Descending New York TRACON
11:11PM 40.3167 -74.8167 52° Northeast 306 352 7,900 -840 Descending New York TRACON
11:12PM 40.3500 -74.7000 69° East 269 310 7,000 -900 Descending New York TRACON
11:13PM 40.3833 -74.6167 62° Northeast 259 298 6,100 -540 Descending New York TRACON
11:14PM 40.4333 -74.5833 27° Northeast 273 314 6,000 -60 Descending New York TRACON
11:15PM 40.5000 -74.5833 360° North 262 302 6,000  Level New York TRACON
11:16PM 40.5833 -74.6000 351° North 264 304 6,000  Level New York TRACON
11:17PM 40.6500 -74.6167 349° North 264 304 6,000  Level New York TRACON
11:18PM 40.7333 -74.6167 360° North 264 304 6,000  Level New York TRACON
11:19PM 40.8000 -74.6333 349° North 260 299 6,000  Level New York TRACON
11:20PM 40.8667 -74.6167 11° North 269 310 6,000  Level New York TRACON
11:21PM 40.9333 -74.5833 21° North 269 310 6,000  Level New York TRACON
11:22PM 41.0167 -74.5667 North 256 295 6,000  Level New York TRACON
11:23PM 41.0833 -74.5500 11° North 250 288 6,000  Level New York TRACON
11:24PM 41.1167 -74.4833 56° Northeast 253 291 6,000 -600 Level New York TRACON
11:25PM 41.1333 -74.4000 75° East 231 266 4,900 -960 Descending New York TRACON
11:26PM 41.1167 -74.3167 105° East 209 241 4,000 -480 Descending New York TRACON
11:27PM 41.1000 -74.2500 108° East 193 222 4,000  Level New York TRACON
11:28PM 41.0833 -74.2000 114° Southeast 196 226 4,000  Level New York TRACON
11:29PM 41.0333 -74.1500 143° Southeast 180 207 4,000  Level New York TRACON
11:30PM 41.0000 -74.1167 143° Southeast 183 211 4,000 -480 Level New York TRACON
11:31PM 40.9500 -74.0667 143° Southeast 170 196 3,000 -480 Descending New York TRACON
11:32PM 40.9167 -74.0500 159° South 147 169 3,000  Level New York TRACON
11:33PM 40.8833 -74.0500 180° South 145 167 3,000  Level New York TRACON
11:34PM 40.8500 -74.0667 201° Southwest 145 167 3,000 -240 Level New York TRACON
11:35PM 40.8167 -74.0833 201° Southwest 143 165 2,600 -480 Descending New York TRACON